Time;durP1;ratioP1;P1;durP2;ratioP2;P2;SDS_P1;SDS_P2;PMS_P1;PMS_P2;Temp;Humidity;BMP_temperature;BMP_pressure;BME280_temperature;BME280_humidity;BME280_pressure;Samples;Min_cycle;Max_cycle;Signal;HPM_P1;HPM_P2
2022/05/13 00:01:45;;;;;;;16.83;5.70;;;13.50;99.90;;;;;;5032178;28;20033;-52
2022/05/13 00:04:10;;;;;;;18.52;5.20;;;13.50;99.90;;;;;;5014600;28;20064;-50
2022/05/13 00:06:37;;;;;;;13.43;5.15;;;13.50;99.90;;;;;;5015028;28;20025;-54
2022/05/13 00:09:03;;;;;;;14.57;4.85;;;13.40;99.90;;;;;;5032173;28;20053;-52
2022/05/13 00:11:29;;;;;;;14.27;4.38;;;13.50;99.90;;;;;;5032976;28;20053;-52
2022/05/13 00:13:54;;;;;;;15.13;4.65;;;13.40;99.90;;;;;;5032228;28;20147;-52
2022/05/13 00:16:20;;;;;;;12.30;5.35;;;13.40;99.90;;;;;;5033038;28;20029;-51
2022/05/13 00:18:45;;;;;;;11.77;5.18;;;13.30;99.90;;;;;;5035834;28;20033;-52
2022/05/13 00:21:11;;;;;;;15.30;4.75;;;13.20;99.90;;;;;;5017684;28;20037;-52
2022/05/13 00:23:37;;;;;;;13.48;4.97;;;13.30;99.90;;;;;;5035643;28;20053;-52
2022/05/13 00:26:03;;;;;;;18.17;5.78;;;13.20;99.90;;;;;;5035931;28;20100;-50
2022/05/13 00:28:29;;;;;;;14.95;5.13;;;13.20;99.90;;;;;;5035898;28;20034;-50
2022/05/13 00:30:54;;;;;;;11.75;4.90;;;13.20;99.90;;;;;;5035452;28;20104;-52
2022/05/13 00:33:21;;;;;;;12.23;4.25;;;13.20;99.90;;;;;;5035451;28;20037;-49
2022/05/13 00:35:47;;;;;;;15.73;4.65;;;13.20;99.90;;;;;;5035764;28;20035;-50
2022/05/13 00:38:13;;;;;;;12.00;4.70;;;13.10;99.90;;;;;;5035850;28;20463;-54
2022/05/13 00:40:40;;;;;;;10.45;4.55;;;13.10;99.90;;;;;;5017594;28;20025;-53
2022/05/13 00:43:09;;;;;;;12.15;4.90;;;13.10;99.90;;;;;;5035551;28;20068;-54
2022/05/13 00:45:35;;;;;;;9.98;4.93;;;13.10;99.90;;;;;;5035315;28;20033;-52
2022/05/13 00:48:01;;;;;;;12.77;4.38;;;13.00;99.90;;;;;;5035444;28;20037;-51
2022/05/13 00:50:30;;;;;;;6.07;4.28;;;13.00;99.90;;;;;;5035088;28;20057;-52
2022/05/13 00:52:55;;;;;;;22.42;4.72;;;13.00;99.90;;;;;;5035467;28;20034;-53
2022/05/13 00:55:43;;;;;;;10.95;4.95;;;13.00;99.90;;;;;;5035678;28;20394;-52
2022/05/13 00:58:13;;;;;;;12.07;4.88;;;13.00;99.90;;;;;;5037216;28;20045;-54
2022/05/13 01:00:39;;;;;;;14.13;5.27;;;12.90;99.90;;;;;;5038214;28;20103;-54
2022/05/13 01:03:06;;;;;;;8.02;4.65;;;12.90;99.90;;;;;;5041657;28;20500;-52
2022/05/13 01:05:31;;;;;;;14.63;4.82;;;12.90;99.90;;;;;;5036593;28;20356;-52
2022/05/13 01:08:06;;;;;;;8.75;3.92;;;12.80;99.90;;;;;;5035299;28;20032;-55
2022/05/13 01:10:34;;;;;;;9.98;4.75;;;12.80;99.90;;;;;;5035335;28;20029;-52
2022/05/13 01:13:03;;;;;;;12.52;5.10;;;12.80;99.90;;;;;;5035087;28;20394;-51
2022/05/13 01:15:35;;;;;;;13.05;4.63;;;12.80;99.90;;;;;;5035504;28;20104;-52
2022/05/13 01:18:07;;;;;;;16.27;5.55;;;12.80;99.90;;;;;;5034970;28;20033;-52
2022/05/13 01:20:37;;;;;;;15.93;5.40;;;12.70;99.90;;;;;;5035127;28;20108;-53
2022/05/13 01:23:10;;;;;;;11.17;4.90;;;12.70;99.90;;;;;;5034729;28;20030;-54
2022/05/13 01:25:42;;;;;;;7.18;4.00;;;12.70;99.90;;;;;;5034880;28;20021;-50
2022/05/13 01:28:12;;;;;;;13.23;4.90;;;12.70;99.90;;;;;;5033705;28;20499;-53
2022/05/13 01:30:42;;;;;;;16.02;4.65;;;12.70;99.90;;;;;;5016833;28;20100;-52
2022/05/13 01:33:08;;;;;;;9.70;4.93;;;12.70;99.90;;;;;;5034570;28;20026;-51
2022/05/13 01:35:36;;;;;;;9.30;4.07;;;12.70;99.90;;;;;;5034690;28;20108;-52
2022/05/13 01:38:01;;;;;;;7.38;4.78;;;12.70;99.90;;;;;;5034860;28;20033;-55
2022/05/13 01:40:27;;;;;;;17.27;5.35;;;12.60;99.90;;;;;;5034060;28;20021;-52
2022/05/13 01:42:52;;;;;;;11.00;5.00;;;12.60;99.90;;;;;;5034436;28;20387;-52
2022/05/13 01:45:18;;;;;;;13.57;4.78;;;12.60;99.90;;;;;;5034012;28;20025;-51
2022/05/13 01:47:44;;;;;;;12.65;5.20;;;12.60;99.90;;;;;;5034270;28;20018;-55
2022/05/13 01:50:10;;;;;;;10.10;4.72;;;12.50;99.90;;;;;;5034266;28;20025;-54
2022/05/13 01:52:36;;;;;;;12.70;5.05;;;12.50;99.90;;;;;;5034022;28;20406;-55
2022/05/13 01:55:01;;;;;;;12.43;4.78;;;12.50;99.90;;;;;;5034786;28;20028;-51
2022/05/13 01:57:27;;;;;;;10.82;5.25;;;12.40;99.90;;;;;;5034100;28;20057;-51
2022/05/13 01:59:53;;;;;;;11.93;5.63;;;12.40;99.90;;;;;;5015970;28;20033;-51
2022/05/13 02:02:18;;;;;;;12.02;5.28;;;12.40;99.90;;;;;;5033781;28;20509;-50
2022/05/13 02:04:44;;;;;;;10.45;4.82;;;12.30;99.90;;;;;;5033567;28;20041;-49
2022/05/13 02:07:09;;;;;;;8.27;4.53;;;12.30;99.90;;;;;;5015989;28;20394;-51
2022/05/13 02:09:35;;;;;;;12.57;5.55;;;12.30;99.90;;;;;;5034319;28;20045;-51
2022/05/13 02:12:01;;;;;;;10.80;4.82;;;12.30;99.90;;;;;;5033542;28;20030;-51
2022/05/13 02:14:26;;;;;;;11.05;4.78;;;12.20;99.90;;;;;;5033479;28;20029;-51
2022/05/13 02:16:52;;;;;;;11.18;5.20;;;12.20;99.90;;;;;;5033721;28;20483;-54
2022/05/13 02:19:17;;;;;;;10.32;5.70;;;12.20;99.90;;;;;;5033860;28;20041;-49
2022/05/13 02:21:43;;;;;;;10.88;4.75;;;12.20;99.90;;;;;;5033544;28;20504;-50
2022/05/13 02:24:10;;;;;;;11.23;4.90;;;12.20;99.90;;;;;;5035418;28;20501;-52
2022/05/13 02:26:36;;;;;;;10.55;4.32;;;12.20;99.90;;;;;;5033646;28;20097;-53
2022/05/13 02:29:02;;;;;;;12.20;4.70;;;12.10;99.90;;;;;;5033434;28;20455;-51
2022/05/13 02:31:31;;;;;;;10.20;5.30;;;12.10;99.90;;;;;;5033368;28;20025;-54
2022/05/13 02:33:59;;;;;;;12.40;4.78;;;12.10;99.90;;;;;;5032780;28;20025;-51
2022/05/13 02:36:25;;;;;;;16.20;5.35;;;12.10;99.90;;;;;;5033629;28;20078;-55
2022/05/13 02:38:51;;;;;;;13.75;4.95;;;12.10;99.90;;;;;;5032956;28;20494;-54
2022/05/13 02:41:17;;;;;;;7.00;4.60;;;12.00;99.90;;;;;;5033159;28;20025;-54
2022/05/13 02:43:50;;;;;;;7.18;4.70;;;11.90;99.90;;;;;;5033320;28;20048;-49
2022/05/13 02:46:28;;;;;;;8.90;5.43;;;11.90;99.90;;;;;;5033244;28;20443;-54
2022/05/13 02:48:54;;;;;;;10.88;4.80;;;11.90;99.90;;;;;;5033212;28;20021;-50
2022/05/13 02:51:21;;;;;;;8.75;4.50;;;11.90;99.90;;;;;;5032906;28;20041;-52
2022/05/13 02:53:47;;;;;;;9.70;5.35;;;11.80;99.90;;;;;;5033278;28;20032;-53
2022/05/13 02:56:13;;;;;;;10.45;4.80;;;11.80;99.90;;;;;;5033197;28;20395;-55
2022/05/13 02:58:39;;;;;;;8.77;4.47;;;11.80;99.90;;;;;;5032764;28;20025;-52
2022/05/13 03:01:06;;;;;;;10.43;4.82;;;11.70;99.90;;;;;;5032704;28;20022;-51
2022/05/13 03:03:33;;;;;;;9.70;4.93;;;11.80;99.90;;;;;;5032980;28;20386;-50
2022/05/13 03:05:59;;;;;;;10.02;5.30;;;11.70;99.90;;;;;;5033088;28;20049;-54
2022/05/13 03:08:25;;;;;;;10.73;5.20;;;11.70;99.90;;;;;;5033059;28;20459;-50
2022/05/13 03:10:51;;;;;;;8.20;4.60;;;11.70;99.90;;;;;;5032604;28;20036;-52
2022/05/13 03:13:19;;;;;;;8.93;5.05;;;11.80;99.90;;;;;;5032693;28;20026;-54
2022/05/13 03:15:45;;;;;;;15.23;4.85;;;11.80;99.90;;;;;;5032668;28;20490;-52
2022/05/13 03:18:11;;;;;;;9.52;5.03;;;11.80;99.90;;;;;;5032546;28;20037;-51
2022/05/13 03:20:36;;;;;;;9.85;4.35;;;11.80;99.90;;;;;;5032332;28;20026;-51
2022/05/13 03:23:02;;;;;;;7.18;3.95;;;11.80;99.90;;;;;;5032565;28;20025;-51
2022/05/13 03:25:28;;;;;;;7.85;4.88;;;11.80;99.90;;;;;;5033063;28;20029;-51
2022/05/13 03:27:54;;;;;;;8.32;4.82;;;11.80;99.90;;;;;;5032849;28;20395;-50
2022/05/13 03:30:22;;;;;;;9.55;4.53;;;11.80;99.90;;;;;;5033208;28;20028;-54
2022/05/13 03:32:48;;;;;;;8.27;4.70;;;11.80;99.90;;;;;;5032911;28;20030;-53
2022/05/13 03:35:15;;;;;;;9.35;4.90;;;11.80;99.90;;;;;;5032790;28;20025;-54
2022/05/13 03:37:41;;;;;;;8.82;4.18;;;11.80;99.90;;;;;;5032810;28;20104;-52
2022/05/13 03:40:07;;;;;;;8.80;5.18;;;11.80;99.90;;;;;;5032432;28;20100;-54
2022/05/13 03:42:36;;;;;;;9.13;4.93;;;11.90;99.90;;;;;;5032884;28;20014;-51
2022/05/13 03:45:03;;;;;;;10.60;4.55;;;11.90;99.90;;;;;;5032939;28;20025;-50
2022/05/13 03:47:29;;;;;;;13.57;4.60;;;11.80;99.90;;;;;;5032515;28;20032;-50
2022/05/13 03:49:54;;;;;;;10.15;4.25;;;11.80;99.90;;;;;;5032532;28;20037;-50
2022/05/13 03:52:20;;;;;;;7.90;4.10;;;11.90;99.90;;;;;;5058576;22;20038;-69
2022/05/13 03:54:45;;;;;;;11.13;4.50;;;11.90;99.90;;;;;;5023578;28;20030;-71
2022/05/13 03:57:11;;;;;;;8.38;4.10;;;11.90;99.90;;;;;;5022760;28;20467;-69
2022/05/13 03:59:37;;;;;;;8.77;4.18;;;11.90;99.90;;;;;;5021607;28;20045;-69
2022/05/13 04:02:02;;;;;;;9.07;3.90;;;12.00;99.90;;;;;;5020829;28;20022;-69
2022/05/13 04:08:56;;;;;;;8.57;4.28;;;12.00;99.90;;;;;;5021509;28;20033;-69
2022/05/13 04:09:59;;;;;;;9.13;3.90;;;12.00;99.90;;;;;;5023191;28;20028;-70
2022/05/13 04:17:58;;;;;;;10.88;4.28;;;12.00;99.90;;;;;;5001623;28;20030;-70
2022/05/13 04:20:25;;;;;;;8.50;4.22;;;12.00;99.90;;;;;;5019597;28;20022;-69
2022/05/13 04:22:50;;;;;;;7.18;3.70;;;12.10;99.90;;;;;;5019224;28;20026;-70
2022/05/13 04:25:16;;;;;;;9.15;3.58;;;12.10;99.90;;;;;;5018723;28;20040;-70
2022/05/13 04:27:41;;;;;;;10.52;4.47;;;12.00;99.90;;;;;;5019258;28;20024;-70
2022/05/13 04:30:07;;;;;;;7.07;3.90;;;12.00;99.90;;;;;;5018580;28;20495;-70
2022/05/13 04:32:34;;;;;;;6.90;3.70;;;12.00;99.90;;;;;;5018497;28;20026;-70
2022/05/13 04:34:59;;;;;;;9.50;4.28;;;12.10;99.90;;;;;;5018213;28;20053;-70
2022/05/13 04:37:25;;;;;;;14.65;5.13;;;12.20;99.90;;;;;;5017942;28;20475;-70
2022/05/13 04:39:53;;;;;;;10.45;4.63;;;12.20;99.90;;;;;;5018520;28;20029;-70
2022/05/13 04:45:05;;;;;;;8.88;4.03;;;12.10;99.90;;;;;;5028847;28;20087;-70
2022/05/13 04:50:35;;;;;;;6.18;3.85;;;12.10;99.90;;;;;;4964930;28;20271;-69
2022/05/13 04:53:01;;;;;;;7.53;4.00;;;12.10;99.90;;;;;;4959514;29;20098;-70
2022/05/13 04:55:27;;;;;;;7.47;4.20;;;12.20;99.90;;;;;;4985838;28;20034;-70
2022/05/13 04:57:52;;;;;;;6.13;3.60;;;12.10;99.90;;;;;;5001479;28;20086;-72
2022/05/13 05:00:18;;;;;;;14.43;4.13;;;12.10;99.90;;;;;;5020353;28;20046;-70
2022/05/13 05:02:44;;;;;;;9.60;4.22;;;12.20;99.90;;;;;;5004284;28;20062;-70
2022/05/13 05:05:11;;;;;;;10.30;4.15;;;12.20;99.90;;;;;;5020931;28;20394;-69
2022/05/13 05:07:37;;;;;;;14.38;4.40;;;12.20;99.90;;;;;;5002734;28;20018;-70
2022/05/13 05:10:03;;;;;;;12.25;4.47;;;12.20;99.90;;;;;;5019329;28;20360;-70
2022/05/13 05:12:28;;;;;;;7.22;3.70;;;12.30;99.90;;;;;;5018928;28;20502;-70
2022/05/13 05:14:54;;;;;;;8.15;4.00;;;12.30;99.90;;;;;;5000854;28;20034;-69
2022/05/13 05:17:19;;;;;;;7.18;4.00;;;12.40;99.90;;;;;;5018397;28;20030;-70
2022/05/13 05:19:45;;;;;;;8.05;4.50;;;12.40;99.90;;;;;;5000168;28;20026;-70
2022/05/13 05:22:10;;;;;;;11.10;3.83;;;12.40;99.90;;;;;;5016714;28;20029;-70
2022/05/13 05:24:36;;;;;;;9.15;4.20;;;12.40;99.90;;;;;;5017415;28;20018;-70
2022/05/13 05:27:02;;;;;;;12.40;4.47;;;12.50;99.90;;;;;;5016960;28;20022;-70
2022/05/13 05:29:27;;;;;;;7.18;3.90;;;12.50;99.90;;;;;;5016537;28;20038;-70
2022/05/13 05:31:53;;;;;;;5.95;3.70;;;12.60;99.90;;;;;;4998985;28;20077;-70
2022/05/13 05:34:19;;;;;;;8.43;3.50;;;12.50;99.90;;;;;;4998942;28;20030;-70
2022/05/13 05:36:44;;;;;;;10.13;4.50;;;12.50;99.90;;;;;;5003590;28;20121;-71
2022/05/13 05:39:10;;;;;;;8.32;3.83;;;12.50;99.90;;;;;;5009420;28;20135;-70
2022/05/13 05:41:36;;;;;;;15.10;4.63;;;12.50;99.90;;;;;;5001079;28;20080;-70
2022/05/13 05:44:02;;;;;;;12.63;4.03;;;12.50;99.90;;;;;;4996985;28;20076;-71
2022/05/13 05:46:28;;;;;;;8.63;3.80;;;12.60;99.90;;;;;;4996719;28;20024;-70
2022/05/13 05:48:53;;;;;;;13.43;4.65;;;12.60;99.90;;;;;;5004163;28;20543;-70
2022/05/13 05:51:20;;;;;;;8.75;4.22;;;12.70;99.90;;;;;;4993495;28;20030;-70
2022/05/13 05:59:13;;;;;;;11.95;4.15;;;12.90;99.90;;;;;;5013859;28;20052;-70
2022/05/13 06:01:39;;;;;;;7.40;4.07;;;12.90;99.90;;;;;;5011438;28;20054;-70
2022/05/13 06:04:06;;;;;;;17.00;4.47;;;12.90;99.90;;;;;;5000548;28;20022;-70
2022/05/13 06:06:32;;;;;;;9.38;4.32;;;12.90;99.90;;;;;;5016383;28;20018;-70
2022/05/13 06:08:59;;;;;;;9.25;4.65;;;13.00;99.90;;;;;;5016819;28;20033;-70
2022/05/13 06:11:26;;;;;;;8.98;4.22;;;12.90;99.90;;;;;;5011359;28;20106;-71
2022/05/13 06:13:53;;;;;;;10.98;3.80;;;13.00;99.90;;;;;;5014275;28;20080;-72
2022/05/13 06:16:19;;;;;;;11.35;4.55;;;13.00;99.90;;;;;;5013896;28;20096;-71
2022/05/13 06:18:45;;;;;;;13.75;3.70;;;13.00;99.90;;;;;;4996332;28;20026;-71
2022/05/13 06:21:11;;;;;;;13.38;4.38;;;13.00;99.90;;;;;;4996537;28;20044;-71
2022/05/13 06:23:36;;;;;;;11.57;4.40;;;13.10;99.90;;;;;;5014187;28;20053;-72
2022/05/13 06:26:02;;;;;;;12.55;3.80;;;13.10;99.90;;;;;;5014423;28;20022;-72
2022/05/13 06:28:28;;;;;;;11.40;3.85;;;13.00;99.90;;;;;;5014997;28;20026;-72
2022/05/13 06:30:54;;;;;;;14.50;4.32;;;13.10;99.90;;;;;;5016676;28;20030;-71
2022/05/13 06:33:21;;;;;;;10.07;3.88;;;13.20;99.90;;;;;;5016367;28;20037;-71
2022/05/13 06:35:46;;;;;;;13.82;3.92;;;13.20;99.90;;;;;;5016203;28;20033;-71
2022/05/13 06:38:20;;;;;;;14.23;4.18;;;13.30;99.90;;;;;;5015829;28;20434;-71
2022/05/13 06:40:47;;;;;;;12.45;4.03;;;13.30;99.90;;;;;;5015836;28;20105;-71
2022/05/13 06:43:13;;;;;;;12.27;3.83;;;13.30;99.90;;;;;;5015779;28;20081;-71
2022/05/13 06:45:39;;;;;;;8.45;3.50;;;13.30;99.90;;;;;;5015708;28;20069;-70
2022/05/13 06:48:05;;;;;;;11.55;3.90;;;13.30;99.90;;;;;;5015849;28;20026;-72
2022/05/13 06:50:32;;;;;;;9.70;3.95;;;13.20;99.90;;;;;;5016294;28;20062;-71
2022/05/13 06:52:57;;;;;;;13.88;4.25;;;13.30;99.90;;;;;;5015367;28;20114;-72
2022/05/13 06:55:23;;;;;;;11.90;3.65;;;13.30;99.90;;;;;;5015985;28;20061;-71
2022/05/13 06:57:49;;;;;;;10.48;4.00;;;13.40;99.90;;;;;;5016141;28;20090;-69
2022/05/13 07:00:15;;;;;;;13.05;4.95;;;13.40;99.90;;;;;;5016375;28;20060;-71
2022/05/13 07:02:41;;;;;;;9.85;4.20;;;13.50;99.90;;;;;;5016435;28;20053;-71
2022/05/13 07:05:09;;;;;;;13.90;3.97;;;13.60;99.90;;;;;;5017531;28;20018;-70
2022/05/13 07:07:35;;;;;;;11.45;3.67;;;13.60;99.90;;;;;;5018113;28;20361;-70
2022/05/13 07:10:01;;;;;;;17.95;3.95;;;13.60;99.90;;;;;;5019063;28;20113;-71
2022/05/13 07:12:27;;;;;;;11.90;3.70;;;13.70;99.90;;;;;;5002002;28;20512;-71
2022/05/13 07:14:53;;;;;;;10.57;3.50;;;13.80;99.90;;;;;;5019665;28;20033;-71
2022/05/13 07:17:19;;;;;;;15.00;4.10;;;13.80;99.90;;;;;;5020160;28;20391;-71
2022/05/13 07:19:45;;;;;;;11.27;3.55;;;13.90;99.90;;;;;;5020764;28;20479;-71
2022/05/13 07:22:11;;;;;;;14.85;3.58;;;14.00;99.90;;;;;;5000143;28;20056;-71
2022/05/13 07:24:36;;;;;;;6.45;4.00;;;14.00;99.90;;;;;;5018236;28;20026;-71
2022/05/13 07:27:03;;;;;;;16.90;4.18;;;14.10;99.90;;;;;;5019527;28;20030;-71
2022/05/13 07:29:30;;;;;;;11.73;3.85;;;14.10;99.90;;;;;;5019985;28;20025;-71
2022/05/13 07:31:55;;;;;;;16.13;4.07;;;14.00;99.90;;;;;;4993375;28;20041;-71
2022/05/13 07:34:21;;;;;;;15.10;4.40;;;14.00;99.90;;;;;;5011835;28;20475;-71
2022/05/13 07:36:48;;;;;;;14.52;4.32;;;14.00;99.90;;;;;;5019094;28;20026;-71
2022/05/13 07:41:58;;;;;;;12.27;4.30;;;13.80;99.90;;;;;;5019355;28;20068;-71
2022/05/13 07:44:24;;;;;;;16.67;5.43;;;13.90;99.90;;;;;;5019685;28;20026;-71
2022/05/13 07:46:51;;;;;;;10.98;3.83;;;14.00;99.90;;;;;;5002008;28;20026;-72
2022/05/13 07:49:17;;;;;;;10.68;3.97;;;14.20;99.90;;;;;;5001687;28;20026;-72
2022/05/13 07:51:43;;;;;;;10.95;4.63;;;14.30;99.90;;;;;;5022752;28;20093;-72
2022/05/13 07:54:09;;;;;;;16.23;4.53;;;14.40;99.90;;;;;;5015513;28;20401;-72
2022/05/13 07:56:35;;;;;;;17.48;4.15;;;14.50;99.90;;;;;;5038712;28;20048;-71
2022/05/13 07:59:02;;;;;;;14.82;4.38;;;14.70;99.90;;;;;;5020572;28;20072;-71
2022/05/13 08:01:28;;;;;;;17.63;4.68;;;14.80;99.90;;;;;;5026394;28;20022;-71
2022/05/13 08:03:56;;;;;;;13.80;4.07;;;15.00;99.90;;;;;;5018503;28;20387;-71
2022/05/13 08:06:22;;;;;;;10.25;3.78;;;15.10;99.90;;;;;;5017506;28;20049;-71
2022/05/13 08:08:53;;;;;;;12.07;3.90;;;15.10;99.90;;;;;;5017884;28;20476;-71
2022/05/13 08:11:19;;;;;;;19.50;4.22;;;15.30;99.90;;;;;;5010151;28;20467;-71
2022/05/13 08:13:45;;;;;;;19.80;4.68;;;15.10;99.90;;;;;;4992642;28;20116;-71
2022/05/13 08:16:14;;;;;;;13.85;4.68;;;15.10;99.90;;;;;;5015251;28;20072;-71
2022/05/13 08:18:41;;;;;;;17.17;4.95;;;15.10;99.90;;;;;;5017261;28;20053;-71
2022/05/13 08:21:07;;;;;;;13.50;4.22;;;15.20;99.90;;;;;;5002042;28;20391;-72
2022/05/13 08:23:33;;;;;;;12.32;3.92;;;15.40;99.90;;;;;;5002100;28;20044;-72
2022/05/13 08:25:59;;;;;;;12.02;4.18;;;15.40;99.90;;;;;;5000461;28;20018;-72
2022/05/13 08:28:25;;;;;;;18.35;4.65;;;15.60;99.90;;;;;;4981300;28;20037;-72
2022/05/13 08:30:51;;;;;;;19.17;5.25;;;15.80;99.90;;;;;;4981256;28;20034;-71
2022/05/13 08:33:18;;;;;;;11.48;4.25;;;16.00;99.90;;;;;;4997841;28;20034;-71
2022/05/13 08:35:49;;;;;;;13.85;5.05;;;16.20;99.90;;;;;;4998713;28;20483;-72
2022/05/13 08:38:21;;;;;;;7.97;4.47;;;16.20;99.90;;;;;;4989756;28;20033;-71
2022/05/13 08:40:50;;;;;;;20.08;4.85;;;16.30;99.90;;;;;;5016048;28;20018;-73
2022/05/13 08:43:20;;;;;;;13.63;4.45;;;16.40;99.90;;;;;;5016279;28;20479;-72
2022/05/13 08:45:53;;;;;;;18.80;4.30;;;16.20;99.90;;;;;;5016005;28;20026;-72
2022/05/13 08:48:30;;;;;;;15.80;4.88;;;16.40;99.90;;;;;;5016822;28;20033;-72
2022/05/13 08:51:11;;;;;;;12.43;3.90;;;16.50;99.90;;;;;;5016319;28;20061;-72
2022/05/13 08:53:53;;;;;;;;;;;16.20;99.90;;;;;;5016289;28;20069;-72
2022/05/13 08:56:29;;;;;;;;;;;16.30;99.90;;;;;;5016957;28;19944;-72
2022/05/13 08:59:08;;;;;;;10.50;3.80;;;16.10;99.90;;;;;;5015371;28;19936;-71
2022/05/13 09:01:53;;;;;;;12.13;3.70;;;16.00;99.90;;;;;;5006104;28;20018;-72
2022/05/13 09:04:22;;;;;;;17.38;4.63;;;16.30;99.90;;;;;;5016132;28;20022;-72
2022/05/13 09:07:01;;;;;;;7.97;3.60;;;16.40;99.90;;;;;;5017406;28;20431;-71
2022/05/13 09:09:27;;;;;;;12.93;4.25;;;16.60;99.90;;;;;;5006936;28;20025;-71
2022/05/13 09:12:17;;;;;;;13.65;3.47;;;16.80;99.90;;;;;;5016744;28;20113;-72
2022/05/13 09:14:50;;;;;;;12.48;3.75;;;17.00;99.90;;;;;;5017477;28;20072;-72
2022/05/13 09:17:31;;;;;;;8.90;3.05;;;17.00;99.90;;;;;;5008790;28;20049;-71
2022/05/13 09:20:10;;;;;;;11.55;4.00;;;17.20;99.90;;;;;;5013020;28;20365;-72
2022/05/13 09:23:08;;;;;;;12.68;3.42;;;17.20;99.90;;;;;;5016744;28;20053;-71
2022/05/13 09:25:41;;;;;;;8.85;3.33;;;17.20;99.90;;;;;;5004369;28;20038;-70
2022/05/13 09:28:09;;;;;;;10.60;3.03;;;17.00;99.90;;;;;;5014272;28;20030;-70
2022/05/13 09:30:39;;;;;;;13.07;2.63;;;17.00;99.90;;;;;;5012209;28;20089;-71
2022/05/13 09:33:19;;;;;;;8.02;3.00;;;16.80;99.90;;;;;;5016037;28;20072;-71
2022/05/13 09:35:46;;;;;;;9.20;3.25;;;16.70;99.90;;;;;;5015020;28;20029;-70
2022/05/13 09:38:15;;;;;;;11.50;2.38;;;16.90;99.90;;;;;;5013643;28;20494;-70
2022/05/13 09:40:54;;;;;;;6.93;2.30;;;17.30;99.90;;;;;;5006065;28;20064;-70
2022/05/13 09:43:34;;;;;;;9.07;2.83;;;17.30;99.90;;;;;;5015400;28;20022;-70
2022/05/13 09:46:30;;;;;;;8.15;2.92;;;17.50;99.90;;;;;;5001484;28;20014;-70
2022/05/13 09:49:01;;;;;;;6.68;2.33;;;17.50;99.90;;;;;;5013789;28;20084;-71
2022/05/13 09:51:51;;;;;;;7.78;2.25;;;17.40;99.90;;;;;;5023250;22;20038;-49
2022/05/13 09:54:31;;;;;;;7.05;2.22;;;17.30;99.90;;;;;;5002516;28;20045;-48
2022/05/13 09:57:10;;;;;;;12.13;3.28;;;17.40;99.90;;;;;;5003964;28;20026;-50
2022/05/13 09:59:51;;;;;;;8.38;2.28;;;17.20;99.90;;;;;;4999452;28;20447;-48
2022/05/13 10:02:24;;;;;;;9.10;2.28;;;17.50;99.90;;;;;;4982811;28;20106;-50
2022/05/13 10:04:55;;;;;;;11.02;2.88;;;17.70;99.90;;;;;;4983157;28;20054;-48
2022/05/13 10:07:22;;;;;;;;;;;17.80;99.90;;;;;;4984399;28;20039;-53
2022/05/13 10:15:39;;;;;;;8.18;2.42;;;17.20;99.90;;;;;;4981285;28;20033;-52
2022/05/13 10:18:18;;;;;;;6.13;2.15;;;17.10;99.90;;;;;;4982905;28;20023;-49
2022/05/13 10:20:45;;;;;;;10.70;2.30;;;17.00;99.90;;;;;;4977496;28;20027;-50
2022/05/13 10:23:41;;;;;;;7.78;2.40;;;17.10;99.90;;;;;;4981525;28;20050;-51
2022/05/13 10:26:14;;;;;;;5.70;2.10;;;17.20;99.90;;;;;;4931392;28;20053;-50
2022/05/13 10:29:13;;;;;;;5.40;2.03;;;17.30;99.90;;;;;;4982798;28;20118;-52
2022/05/13 10:31:42;;;;;;;6.97;2.17;;;17.50;99.90;;;;;;4983094;28;20018;-49
2022/05/13 10:34:14;;;;;;;9.10;2.10;;;17.50;99.90;;;;;;4957261;28;20023;-47
2022/05/13 10:36:46;;;;;;;13.02;2.33;;;17.50;99.90;;;;;;4978522;28;20392;-48
2022/05/13 10:39:22;;;;;;;7.60;2.00;;;17.30;99.90;;;;;;4979756;28;20026;-50
2022/05/13 10:42:03;;;;;;;11.75;2.58;;;17.20;99.90;;;;;;4981589;28;20081;-53
2022/05/13 10:45:08;;;;;;;4.90;1.80;;;17.10;99.90;;;;;;4979330;28;20026;-49
2022/05/13 10:47:40;;;;;;;6.72;2.30;;;16.90;99.90;;;;;;4979164;28;20030;-47
2022/05/13 10:50:16;;;;;;;8.32;2.70;;;16.90;99.90;;;;;;4983688;28;20018;-48
2022/05/13 10:53:12;;;;;;;3.75;1.58;;;16.90;99.90;;;;;;4981324;28;20035;-49
2022/05/13 10:55:59;;;;;;;8.32;2.60;;;17.20;99.90;;;;;;4982611;28;20030;-49
2022/05/13 10:58:54;;;;;;;10.52;2.15;;;17.50;99.90;;;;;;4983290;28;20557;-48
2022/05/13 11:01:25;;;;;;;6.78;2.13;;;17.40;99.90;;;;;;4982965;28;20038;-49
2022/05/13 11:04:35;;;;;;;7.35;2.65;;;17.40;99.90;;;;;;4983599;28;20369;-51
2022/05/13 11:07:25;;;;;;;7.70;2.22;;;17.80;99.90;;;;;;4983203;28;20030;-50
2022/05/13 11:10:08;;;;;;;10.80;2.85;;;18.00;99.90;;;;;;4982734;28;20062;-51
2022/05/13 11:13:02;;;;;;;3.67;2.10;;;18.20;99.90;;;;;;4982704;28;20427;-48
2022/05/13 11:15:47;;;;;;;4.93;2.42;;;18.10;99.90;;;;;;4983270;28;20023;-51
2022/05/13 11:18:43;;;;;;;8.55;2.42;;;18.10;99.90;;;;;;4982673;28;20502;-47
2022/05/13 11:21:27;;;;;;;7.10;2.10;;;18.20;99.90;;;;;;4980986;28;20113;-47
2022/05/13 11:27:32;;;;;;;9.55;2.58;;;18.50;99.90;;;;;;4884494;29;20040;-47
2022/05/13 11:30:17;;;;;;;6.93;2.15;;;18.50;99.90;;;;;;4883618;29;20025;-49
2022/05/13 11:33:01;;;;;;;5.85;1.80;;;18.40;99.90;;;;;;4966317;28;20186;-47
2022/05/13 11:35:54;;;;;;;7.20;2.10;;;18.40;99.90;;;;;;4981693;28;20037;-49
2022/05/13 11:38:28;;;;;;;11.98;2.38;;;18.30;99.90;;;;;;4982116;28;21080;-48
2022/05/13 11:41:08;;;;;;;16.90;2.03;;;18.20;99.90;;;;;;4984216;28;20049;-48
2022/05/13 11:43:52;;;;;;;5.47;1.80;;;17.90;99.90;;;;;;4982756;28;20054;-48
2022/05/13 11:46:31;;;;;;;8.73;1.75;;;17.80;99.90;;;;;;4980884;28;20011;-48
2022/05/13 11:49:10;;;;;;;2.47;1.73;;;17.90;99.90;;;;;;4980595;28;20054;-49
2022/05/13 11:51:37;;;;;;;7.82;2.10;;;18.10;99.90;;;;;;4965297;28;20050;-52
2022/05/13 11:54:02;;;;;;;4.40;1.70;;;18.00;99.90;;;;;;4981408;28;20128;-48
2022/05/13 11:56:29;;;;;;;5.53;1.50;;;18.10;99.90;;;;;;4983115;28;20500;-49
2022/05/13 11:58:57;;;;;;;5.45;1.88;;;18.20;99.90;;;;;;4980605;28;20029;-49
2022/05/13 12:01:37;;;;;;;7.38;1.75;;;18.40;99.90;;;;;;4985152;28;20054;-50
2022/05/13 12:04:14;;;;;;;7.65;1.80;;;18.40;99.90;;;;;;4985861;28;20030;-48
2022/05/13 12:06:49;;;;;;;9.02;1.70;;;18.40;99.90;;;;;;4983142;28;20038;-51
2022/05/13 12:09:56;;;;;;;6.72;1.48;;;18.60;99.90;;;;;;4987126;28;20493;-51
2022/05/13 12:12:41;;;;;;;6.38;2.00;;;18.60;99.90;;;;;;4889990;29;20093;-51
2022/05/13 12:15:40;;;;;;;4.45;1.45;;;18.40;99.90;;;;;;4981642;28;20035;-50
2022/05/13 12:18:30;;;;;;;6.22;1.80;;;18.10;99.90;;;;;;4988963;28;20102;-50
2022/05/13 12:21:18;;;;;;;7.45;1.80;;;17.70;99.90;;;;;;4986791;28;20054;-54
2022/05/13 12:24:12;;;;;;;5.70;1.58;;;17.80;99.90;;;;;;4986135;28;20029;-53
2022/05/13 12:26:54;;;;;;;5.60;1.52;;;18.00;99.90;;;;;;4966087;28;20018;-51
2022/05/13 12:29:32;;;;;;;3.28;1.63;;;18.20;99.90;;;;;;4980890;28;20021;-48
2022/05/13 12:31:57;;;;;;;3.83;1.67;;;18.20;99.90;;;;;;4979708;28;20097;-48
2022/05/13 12:37:39;;;;;;;8.40;1.63;;;18.50;99.90;;;;;;4986148;28;20086;-49
2022/05/13 12:40:16;;;;;;;6.17;1.50;;;18.40;99.90;;;;;;4985158;28;20034;-49
2022/05/13 12:42:47;;;;;;;4.63;1.90;;;18.30;99.90;;;;;;4978589;28;20436;-47
2022/05/13 12:45:21;;;;;;;5.30;1.67;;;18.40;99.90;;;;;;4975736;28;20116;-49
2022/05/13 12:48:07;;;;;;;4.85;1.50;;;18.30;99.90;;;;;;4975299;28;20031;-49
2022/05/13 12:51:11;;;;;;;6.22;1.60;;;18.30;99.90;;;;;;4973764;28;20479;-51
2022/05/13 12:53:51;;;;;;;4.40;1.25;;;18.40;99.90;;;;;;4973015;28;20054;-47
2022/05/13 12:56:30;;;;;;;3.03;1.30;;;18.40;99.90;;;;;;4975794;28;20379;-48
2022/05/13 12:59:06;;;;;;;5.93;1.33;;;18.30;99.90;;;;;;4974692;28;20065;-50
2022/05/13 13:01:32;;;;;;;4.97;1.30;;;18.50;99.90;;;;;;4974326;28;20053;-56
2022/05/13 13:03:59;;;;;;;7.50;1.58;;;18.60;99.90;;;;;;4976604;28;20018;-50
2022/05/13 13:06:35;;;;;;;5.85;1.23;;;18.80;99.90;;;;;;4973009;28;20471;-50
2022/05/13 13:09:00;;;;;;;4.85;1.30;;;18.80;99.90;;;;;;4980582;28;20022;-50
2022/05/13 13:11:30;;;;;;;3.75;1.13;;;18.80;99.90;;;;;;4985083;28;20028;-51
2022/05/13 13:14:05;;;;;;;3.30;0.90;;;18.70;99.90;;;;;;4985048;28;20109;-50
2022/05/13 13:16:39;;;;;;;3.13;1.25;;;18.80;99.90;;;;;;4980380;28;20109;-51
2022/05/13 13:19:06;;;;;;;3.70;1.20;;;18.80;99.90;;;;;;4984231;28;20077;-50
2022/05/13 13:21:32;;;;;;;5.10;1.27;;;18.70;99.90;;;;;;4984692;28;20026;-50
2022/05/13 13:24:00;;;;;;;5.25;1.83;;;18.60;99.90;;;;;;4983464;28;20134;-51
2022/05/13 13:26:27;;;;;;;9.45;1.73;;;18.30;99.90;;;;;;4981761;28;20105;-48
2022/05/13 13:28:53;;;;;;;9.43;1.48;;;18.50;99.90;;;;;;4975507;28;20030;-52
2022/05/13 13:31:25;;;;;;;5.05;1.80;;;18.50;99.90;;;;;;4973841;28;20473;-50
2022/05/13 13:33:56;;;;;;;2.05;1.30;;;18.70;99.90;;;;;;4980727;28;20032;-53
2022/05/13 13:36:33;;;;;;;5.32;1.50;;;18.90;99.90;;;;;;4977050;28;20031;-49